createdAt,value
2023-03-19T00:04:06.265Z,100139.44
2023-03-19T00:09:09.091Z,100145.47
2023-03-19T00:14:10.528Z,100137.38
2023-03-19T00:19:11.965Z,100145.94
2023-03-19T00:24:14.849Z,100146.41
2023-03-19T00:29:16.344Z,100155.09
2023-03-19T00:34:17.862Z,100145.41
2023-03-19T00:39:20.714Z,100146.53
2023-03-19T00:44:22.240Z,100146.75
2023-03-19T00:49:23.832Z,100147.56
2023-03-19T00:54:26.662Z,100155.00
2023-03-19T00:59:28.197Z,100153.31
2023-03-19T01:04:29.690Z,100152.38
2023-03-19T01:09:32.527Z,100158.75
2023-03-19T01:14:34.321Z,100163.00
2023-03-19T01:19:35.873Z,100173.09
2023-03-19T01:24:38.761Z,100160.81
2023-03-19T01:29:40.247Z,100168.47
2023-03-19T01:34:41.727Z,100166.47
2023-03-19T01:39:44.545Z,100164.38
2023-03-19T01:44:45.994Z,100157.28
2023-03-19T01:49:51.258Z,100158.16
2023-03-19T01:54:54.945Z,100163.00
2023-03-19T01:59:57.201Z,100166.81
2023-03-19T02:05:00.543Z,100165.47
2023-03-19T02:10:04.619Z,100163.75
2023-03-19T02:15:06.711Z,100150.00
2023-03-19T02:20:13.104Z,100146.66
2023-03-19T02:25:20.495Z,100139.00
2023-03-19T02:30:25.062Z,100150.50
2023-03-19T02:35:26.943Z,100159.44
2023-03-19T02:40:30.889Z,100157.78
2023-03-19T02:45:33.750Z,100168.53
2023-03-19T02:50:35.538Z,100184.69
2023-03-19T02:55:37.137Z,100179.22
2023-03-19T03:00:40.820Z,100172.28
2023-03-19T03:05:42.294Z,100177.88
2023-03-19T03:10:44.101Z,100180.41
2023-03-19T03:15:46.947Z,100181.59
2023-03-19T03:20:48.555Z,100177.75
2023-03-19T03:25:50.356Z,100187.41
2023-03-19T03:30:57.873Z,100180.34
2023-03-19T03:35:59.325Z,100183.00
2023-03-19T03:41:00.951Z,100170.06
2023-03-19T03:46:03.823Z,100181.78
2023-03-19T03:51:05.478Z,100187.25
2023-03-19T03:56:07.244Z,100188.56
2023-03-19T04:01:13.913Z,100188.78
2023-03-19T04:06:16.983Z,100188.56
2023-03-19T04:11:19.042Z,100199.09
2023-03-19T04:16:22.013Z,100200.97
2023-03-19T04:21:23.491Z,100207.38
2023-03-19T04:26:24.965Z,100208.53
2023-03-19T04:31:28.640Z,100195.31
2023-03-19T04:36:30.119Z,100199.19
2023-03-19T04:41:31.626Z,100196.00
2023-03-19T04:46:34.569Z,100206.19
2023-03-19T04:51:36.286Z,100204.88
2023-03-19T04:56:37.957Z,100210.72
2023-03-19T05:01:40.913Z,100214.53
2023-03-19T05:06:42.401Z,100225.16
2023-03-19T05:11:43.856Z,100228.94
2023-03-19T05:16:46.690Z,100235.56
2023-03-19T05:21:48.142Z,100237.75
2023-03-19T05:26:49.676Z,100249.66
2023-03-19T05:31:53.564Z,100250.47
2023-03-19T05:36:54.995Z,100244.38
2023-03-19T05:41:56.560Z,100248.81
2023-03-19T05:47:01.996Z,100252.34
2023-03-19T05:52:03.756Z,100250.25
2023-03-19T05:57:05.359Z,100247.03
2023-03-19T06:02:08.580Z,100255.06
2023-03-19T06:07:10.339Z,100252.88
2023-03-19T06:12:11.969Z,100254.03
2023-03-19T06:17:14.827Z,100257.09
2023-03-19T06:22:16.283Z,100268.69
2023-03-19T06:27:17.791Z,100274.97
2023-03-19T06:32:20.702Z,100277.28
2023-03-19T06:37:22.222Z,100281.69
2023-03-19T06:42:23.848Z,100280.28
2023-03-19T06:47:27.049Z,100282.91
2023-03-19T06:52:28.513Z,100283.19
2023-03-19T06:57:30.010Z,100292.28
2023-03-19T07:02:32.862Z,100286.72
2023-03-19T07:07:34.385Z,100294.53
2023-03-19T07:12:35.834Z,100298.31
2023-03-19T07:17:38.817Z,100300.03
2023-03-19T07:22:40.252Z,100299.03
2023-03-19T07:27:41.735Z,100309.97
2023-03-19T07:32:44.668Z,100308.91
2023-03-19T07:37:46.089Z,100305.56
2023-03-19T07:42:47.537Z,100311.84
2023-03-19T07:47:50.950Z,100309.66
2023-03-19T07:52:52.377Z,100311.81
2023-03-19T07:57:53.868Z,100316.97
2023-03-19T08:02:56.831Z,100314.75
2023-03-19T08:07:58.340Z,100314.56
2023-03-19T08:12:59.809Z,100321.31
2023-03-19T08:18:03.909Z,100325.72
2023-03-19T08:23:05.465Z,100321.75
2023-03-19T08:28:06.996Z,100331.59
2023-03-19T08:33:10.218Z,100328.03
2023-03-19T08:38:11.868Z,100319.81
2023-03-19T08:43:13.339Z,100327.97
2023-03-19T08:48:16.171Z,100317.50
2023-03-19T08:53:17.634Z,100323.94
2023-03-19T08:58:19.169Z,100325.28
2023-03-19T09:03:21.983Z,100326.84
2023-03-19T09:08:23.503Z,100328.41
2023-03-19T09:13:25.042Z,100322.59
2023-03-19T09:18:28.040Z,100337.88
2023-03-19T09:23:29.494Z,100346.25
2023-03-19T09:28:30.987Z,100348.41
2023-03-19T09:33:33.921Z,100350.97
2023-03-19T09:38:35.512Z,100346.69
2023-03-19T09:43:41.547Z,100354.63
2023-03-19T09:48:47.360Z,100351.69
2023-03-19T09:53:53.891Z,100355.47
2023-03-19T09:58:55.503Z,100356.88
2023-03-19T10:20:45.741Z,100351.78
2023-03-19T10:25:47.733Z,100352.44
2023-03-19T10:30:57.747Z,100354.69
2023-03-19T10:36:04.081Z,100353.88
2023-03-19T10:41:15.913Z,100349.94
2023-03-19T10:46:17.455Z,100351.34
2023-03-19T10:51:43.585Z,100347.13
2023-03-19T10:56:51.549Z,100365.63
2023-03-19T11:13:41.296Z,100417.72
2023-03-19T11:19:17.680Z,100428.66
2023-03-19T11:24:43.025Z,100428.88
2023-03-19T11:33:04.179Z,100415.94
2023-03-19T11:35:42.724Z,100413.41
2023-03-19T11:58:26.655Z,100405.50
2023-03-19T12:14:49.444Z,100400.50
2023-03-19T12:26:04.500Z,100389.78
2023-03-19T12:31:30.835Z,100393.31
2023-03-19T12:42:41.679Z,100391.53
2023-03-19T12:47:46.865Z,100389.06
2023-03-19T13:21:53.114Z,100380.88
2023-03-19T13:33:05.169Z,100370.97
2023-03-19T14:01:39.946Z,100345.16
2023-03-19T14:46:12.153Z,100341.91
2023-03-19T15:03:05.766Z,100330.28
2023-03-19T15:08:53.900Z,100333.69
2023-03-19T15:14:10.222Z,100321.50
2023-03-19T15:19:32.825Z,100319.81
2023-03-19T15:24:43.431Z,100329.69
2023-03-19T15:40:58.624Z,100329.50
2023-03-19T15:46:14.999Z,100333.03
2023-03-19T15:56:45.320Z,100338.53
2023-03-19T16:13:32.103Z,100356.22
2023-03-19T16:58:28.420Z,100388.09
2023-03-19T17:09:32.020Z,100405.91
2023-03-19T17:20:42.844Z,100425.81
2023-03-19T17:42:24.985Z,100447.19
2023-03-19T17:47:47.071Z,100447.97
2023-03-19T17:58:33.824Z,100460.41
2023-03-19T18:03:37.629Z,100455.25
2023-03-19T18:08:48.914Z,100450.69
2023-03-19T18:19:20.559Z,100466.91
2023-03-19T18:24:28.225Z,100467.53
2023-03-19T18:40:55.102Z,100492.97
2023-03-19T18:51:14.027Z,100511.03
2023-03-19T18:56:19.849Z,100533.66
2023-03-19T19:01:21.455Z,100530.63
2023-03-19T19:06:36.660Z,100542.63
2023-03-19T19:11:47.740Z,100549.28
2023-03-19T19:16:49.909Z,100550.75
2023-03-19T19:21:53.588Z,100549.44
2023-03-19T19:26:55.104Z,100556.63
2023-03-19T19:31:57.127Z,100563.13
2023-03-19T19:37:00.020Z,100566.16
2023-03-19T19:42:01.505Z,100574.75
2023-03-19T19:47:09.730Z,100575.59
2023-03-19T19:52:15.203Z,100586.59
2023-03-19T19:57:18.113Z,100591.97
2023-03-19T20:02:20.273Z,100601.47
2023-03-19T20:07:23.145Z,100599.56
2023-03-19T20:12:26.483Z,100606.72
2023-03-19T20:17:28.048Z,100619.81
2023-03-19T20:22:30.838Z,100630.44
2023-03-19T20:27:32.561Z,100631.13
2023-03-19T20:32:34.776Z,100632.56
2023-03-19T20:37:37.628Z,100641.44
2023-03-19T20:42:39.314Z,100647.28
2023-03-19T20:47:40.802Z,100662.59
2023-03-19T20:52:43.639Z,100665.66
2023-03-19T20:57:46.120Z,100668.19
2023-03-19T21:02:48.114Z,100676.03
2023-03-19T21:07:51.872Z,100674.63
2023-03-19T21:12:53.314Z,100684.41
2023-03-19T21:17:55.326Z,100696.47
2023-03-19T21:23:03.955Z,100687.56
2023-03-19T21:28:07.133Z,100689.19
2023-03-19T21:33:14.038Z,100692.81
2023-03-19T21:38:16.898Z,100686.00
2023-03-19T21:43:20.053Z,100685.72
2023-03-19T21:48:23.535Z,100696.13
2023-03-19T21:53:26.601Z,100689.19
2023-03-19T21:58:29.767Z,100678.91
2023-03-19T22:03:31.233Z,100675.91
2023-03-19T22:08:34.093Z,100679.72
2023-03-19T22:13:35.748Z,100686.44
2023-03-19T22:18:37.223Z,100682.91
2023-03-19T22:23:40.096Z,100682.88
2023-03-19T22:28:41.543Z,100691.03
2023-03-19T22:33:42.978Z,100692.09
2023-03-19T22:38:45.822Z,100696.00
2023-03-19T22:43:47.673Z,100684.84
2023-03-19T22:48:49.522Z,100682.91
2023-03-19T22:53:52.765Z,100683.41
2023-03-19T22:58:54.200Z,100687.31
2023-03-19T23:03:55.725Z,100688.16
2023-03-19T23:08:58.593Z,100689.97
2023-03-19T23:14:00.056Z,100684.41
2023-03-19T23:19:01.602Z,100682.84
2023-03-19T23:24:05.204Z,100696.19
2023-03-19T23:29:06.671Z,100702.41
2023-03-19T23:34:09.681Z,100711.59
2023-03-19T23:39:12.485Z,100713.34
2023-03-19T23:44:14.890Z,100712.59
2023-03-19T23:49:17.582Z,100727.78
2023-03-19T23:54:30.816Z,100717.75
2023-03-19T23:59:34.217Z,100729.78
